Time;durP1;ratioP1;P1;durP2;ratioP2;P2;SDS_P1;SDS_P2;PMS_P1;PMS_P2;Temp;Humidity;BMP_temperature;BMP_pressure;BME280_temperature;BME280_humidity;BME280_pressure;Samples;Min_cycle;Max_cycle;Signal;HPM_P1;HPM_P2
2022/09/15 00:00:38;;;;;;;5.57;4.37;;;18.20;99.90;;;;;;5032091;28;20281;-71
2022/09/15 00:03:03;;;;;;;5.17;4.53;;;18.20;99.90;;;;;;5032101;28;20188;-71
2022/09/15 00:05:29;;;;;;;5.43;5.00;;;18.20;99.90;;;;;;5032135;28;20643;-71
2022/09/15 00:07:54;;;;;;;3.50;3.20;;;18.20;99.90;;;;;;5032170;28;20174;-71
2022/09/15 00:10:20;;;;;;;4.47;3.37;;;18.20;99.90;;;;;;5031496;28;20210;-71
2022/09/15 00:12:45;;;;;;;3.83;3.43;;;18.30;99.90;;;;;;5032222;28;20178;-71
2022/09/15 00:15:13;;;;;;;3.27;3.00;;;18.30;99.90;;;;;;5032153;28;20170;-71
2022/09/15 00:17:40;;;;;;;6.30;2.80;;;18.30;99.90;;;;;;5031968;28;20205;-71
2022/09/15 00:20:06;;;;;;;2.73;2.53;;;18.20;99.90;;;;;;5031170;28;20470;-71
2022/09/15 00:22:32;;;;;;;4.40;2.70;;;18.20;99.90;;;;;;5033027;28;20933;-71
2022/09/15 00:24:58;;;;;;;3.10;2.90;;;18.20;99.90;;;;;;5036142;28;20444;-71
2022/09/15 00:27:23;;;;;;;2.57;2.40;;;18.20;99.90;;;;;;5036013;28;20441;-71
2022/09/15 00:29:49;;;;;;;4.40;2.80;;;18.10;99.90;;;;;;5035319;28;20166;-71
2022/09/15 00:32:14;;;;;;;4.00;2.17;;;18.10;99.90;;;;;;5034546;28;20292;-71
2022/09/15 00:34:40;;;;;;;4.90;2.30;;;18.20;99.90;;;;;;5036131;28;20540;-71
2022/09/15 00:37:06;;;;;;;3.93;2.63;;;18.20;99.90;;;;;;5036048;28;20173;-71
2022/09/15 00:39:31;;;;;;;4.20;2.70;;;18.30;99.90;;;;;;5035294;28;20186;-71
2022/09/15 00:41:57;;;;;;;3.40;2.40;;;18.20;99.90;;;;;;5035790;28;20698;-71
2022/09/15 00:44:22;;;;;;;4.93;2.50;;;18.20;99.90;;;;;;5035757;28;20648;-71
2022/09/15 00:46:53;;;;;;;2.80;2.60;;;18.20;99.90;;;;;;5035921;28;20175;-71
2022/09/15 00:49:26;;;;;;;2.87;2.40;;;18.20;99.90;;;;;;5035159;28;20180;-71
2022/09/15 00:52:06;;;;;;;2.63;2.43;;;18.20;99.90;;;;;;5035480;28;20459;-71
2022/09/15 00:54:46;;;;;;;2.50;2.30;;;18.20;99.90;;;;;;5035570;28;20404;-71
2022/09/15 00:57:24;;;;;;;2.70;2.33;;;18.20;99.90;;;;;;5035538;28;20937;-71
2022/09/15 00:59:51;;;;;;;2.63;2.43;;;18.20;99.90;;;;;;5034843;28;20438;-71
2022/09/15 01:02:29;;;;;;;2.60;2.40;;;18.20;99.90;;;;;;5035516;28;20449;-71
2022/09/15 01:04:56;;;;;;;3.63;3.07;;;18.20;99.90;;;;;;5035893;28;20427;-71
2022/09/15 01:07:29;;;;;;;2.37;2.23;;;18.20;99.90;;;;;;5035364;28;20419;-71
2022/09/15 01:10:01;;;;;;;2.90;2.60;;;18.20;99.90;;;;;;5034571;28;20416;-71
2022/09/15 01:12:27;;;;;;;2.50;2.30;;;18.20;99.90;;;;;;5035248;28;20433;-71
2022/09/15 01:14:53;;;;;;;3.67;3.00;;;18.10;99.90;;;;;;5035252;28;20479;-71
2022/09/15 01:17:33;;;;;;;3.03;2.83;;;18.10;99.90;;;;;;5035106;28;20429;-71
2022/09/15 01:20:24;;;;;;;2.57;2.37;;;18.10;99.90;;;;;;5034402;28;20173;-71
2022/09/15 01:23:04;;;;;;;3.57;3.27;;;18.10;99.90;;;;;;5035142;28;20495;-71
2022/09/15 01:25:37;;;;;;;3.40;3.10;;;18.10;99.90;;;;;;5035087;28;20409;-71
2022/09/15 01:28:08;;;;;;;3.10;2.50;;;18.00;99.90;;;;;;5033846;28;20421;-71
2022/09/15 01:30:41;;;;;;;3.00;2.80;;;18.00;99.90;;;;;;5034298;28;20460;-71
2022/09/15 01:33:36;;;;;;;3.10;2.60;;;18.00;99.90;;;;;;5034829;28;20962;-71
2022/09/15 01:36:13;;;;;;;4.17;2.57;;;18.00;99.90;;;;;;5034749;28;20424;-71
2022/09/15 01:38:47;;;;;;;3.70;2.60;;;17.90;99.90;;;;;;5033925;28;20417;-71
2022/09/15 01:41:34;;;;;;;4.57;2.50;;;17.90;99.90;;;;;;5034592;28;20957;-71
2022/09/15 01:44:11;;;;;;;4.60;3.50;;;17.90;99.90;;;;;;5034728;28;20918;-71
2022/09/15 01:46:46;;;;;;;3.30;2.77;;;17.80;99.90;;;;;;5034884;28;20412;-71
2022/09/15 01:49:25;;;;;;;3.10;2.43;;;17.80;99.90;;;;;;5033941;28;20951;-71
2022/09/15 01:51:53;;;;;;;3.10;2.80;;;17.80;99.90;;;;;;5034460;28;20940;-71
2022/09/15 01:54:25;;;;;;;3.97;2.80;;;17.70;99.90;;;;;;5034428;28;20435;-71
2022/09/15 01:56:50;;;;;;;2.80;2.60;;;17.80;99.90;;;;;;5034192;28;20421;-71
2022/09/15 01:59:16;;;;;;;7.83;2.60;;;17.70;99.90;;;;;;5033674;28;20427;-71
2022/09/15 02:01:48;;;;;;;2.90;2.70;;;17.70;99.90;;;;;;5034190;28;20194;-71
2022/09/15 02:04:26;;;;;;;4.00;2.47;;;17.70;99.90;;;;;;5034404;28;20185;-71
2022/09/15 02:07:10;;;;;;;3.37;2.80;;;17.70;99.90;;;;;;5034340;28;20504;-71
2022/09/15 02:09:43;;;;;;;3.27;2.50;;;17.70;99.90;;;;;;5033427;28;20881;-71
2022/09/15 02:12:19;;;;;;;2.93;2.57;;;17.70;99.90;;;;;;5034237;28;20522;-71
2022/09/15 02:15:06;;;;;;;2.90;2.60;;;17.70;99.90;;;;;;5034091;28;20787;-71
2022/09/15 02:17:37;;;;;;;2.77;2.57;;;17.70;99.90;;;;;;5034030;28;20508;-71
2022/09/15 02:20:48;;;;;;;3.03;2.77;;;17.70;99.90;;;;;;5033270;28;20424;-71
2022/09/15 02:23:25;;;;;;;2.73;2.50;;;17.80;99.90;;;;;;5033854;28;20433;-71
2022/09/15 02:25:55;;;;;;;2.50;2.30;;;17.80;99.90;;;;;;5033784;28;20417;-71
2022/09/15 02:28:25;;;;;;;2.50;2.30;;;17.90;99.90;;;;;;5033463;28;20412;-71
2022/09/15 02:30:54;;;;;;;4.03;2.40;;;17.90;99.90;;;;;;5033399;28;20568;-71
2022/09/15 02:33:24;;;;;;;3.43;2.20;;;17.80;99.90;;;;;;5033727;28;20421;-71
2022/09/15 02:35:51;;;;;;;2.50;1.80;;;17.80;99.90;;;;;;5033758;28;20483;-71
2022/09/15 02:38:17;;;;;;;2.80;2.20;;;17.80;99.90;;;;;;5032817;28;20429;-71
2022/09/15 02:40:43;;;;;;;5.20;2.30;;;17.80;99.90;;;;;;5033534;28;20524;-71
2022/09/15 02:43:15;;;;;;;3.87;2.30;;;17.80;99.90;;;;;;5033625;28;20425;-74
2022/09/15 02:45:41;;;;;;;2.40;2.30;;;17.80;99.90;;;;;;5032846;28;20547;-71
2022/09/15 02:48:08;;;;;;;2.43;1.83;;;17.80;99.90;;;;;;5033453;28;20502;-71
2022/09/15 02:50:34;;;;;;;3.20;2.40;;;17.80;99.90;;;;;;5032699;28;20467;-71
2022/09/15 02:53:00;;;;;;;2.33;2.13;;;17.80;99.90;;;;;;5033446;28;20776;-71
2022/09/15 02:55:28;;;;;;;3.30;2.40;;;17.80;99.90;;;;;;5033583;28;20428;-72
2022/09/15 02:57:55;;;;;;;2.00;1.83;;;17.70;99.90;;;;;;5033178;28;20300;-71
2022/09/15 03:00:20;;;;;;;2.20;2.10;;;17.70;99.90;;;;;;5032619;28;20417;-71
2022/09/15 03:02:51;;;;;;;2.73;2.53;;;17.60;99.90;;;;;;5033190;28;20496;-71
2022/09/15 03:05:22;;;;;;;2.30;2.20;;;17.60;99.90;;;;;;5033186;28;20171;-71
2022/09/15 03:07:48;;;;;;;2.60;2.40;;;17.60;99.90;;;;;;5033472;28;20419;-71
2022/09/15 03:10:15;;;;;;;1.80;1.70;;;17.60;99.90;;;;;;5032323;28;20450;-71
2022/09/15 03:12:46;;;;;;;5.73;1.80;;;17.60;99.90;;;;;;5033143;28;20166;-71
2022/09/15 03:15:14;;;;;;;2.33;1.70;;;17.60;99.90;;;;;;5033063;28;20468;-71
2022/09/15 03:17:42;;;;;;;3.47;1.93;;;17.60;99.90;;;;;;5032954;28;20420;-71
2022/09/15 03:20:10;;;;;;;5.50;2.30;;;17.60;99.90;;;;;;5031781;28;20425;-73
2022/09/15 03:22:37;;;;;;;1.90;1.80;;;17.50;99.90;;;;;;5033044;28;20420;-71
2022/09/15 03:25:04;;;;;;;2.50;2.20;;;17.50;99.90;;;;;;5032703;28;20424;-71
2022/09/15 03:27:30;;;;;;;2.77;1.83;;;17.50;99.90;;;;;;5032731;28;20424;-71
2022/09/15 03:29:55;;;;;;;3.47;1.87;;;17.50;99.90;;;;;;5031957;28;20416;-71
2022/09/15 03:32:21;;;;;;;2.30;2.20;;;17.50;99.90;;;;;;5032434;28;20340;-71
2022/09/15 03:34:46;;;;;;;2.50;2.07;;;17.50;99.90;;;;;;5032694;28;20516;-71
2022/09/15 03:37:12;;;;;;;3.33;2.03;;;17.50;99.90;;;;;;5032851;28;20600;-71
2022/09/15 03:39:37;;;;;;;2.33;2.10;;;17.50;99.90;;;;;;5031803;28;20198;-71
2022/09/15 03:42:03;;;;;;;2.10;1.90;;;17.50;99.90;;;;;;5031299;28;20289;-71
2022/09/15 03:44:29;;;;;;;3.10;1.97;;;17.40;99.90;;;;;;5032390;28;20228;-71
2022/09/15 03:46:54;;;;;;;4.93;2.10;;;17.40;99.90;;;;;;5032320;28;20175;-71
2022/09/15 03:49:20;;;;;;;2.40;2.20;;;17.40;99.90;;;;;;5031473;28;20170;-71
2022/09/15 03:51:45;;;;;;;1.97;1.87;;;17.40;99.90;;;;;;5032418;28;20209;-71
2022/09/15 03:54:11;;;;;;;3.23;2.63;;;17.40;99.90;;;;;;5032292;28;20208;-71
2022/09/15 03:56:36;;;;;;;2.70;2.50;;;17.30;99.90;;;;;;5031662;28;20253;-71
2022/09/15 03:59:04;;;;;;;3.37;2.50;;;17.30;99.90;;;;;;5031166;28;20167;-71
2022/09/15 04:01:31;;;;;;;2.70;2.27;;;17.30;99.90;;;;;;5032152;28;20190;-71
2022/09/15 04:03:56;;;;;;;3.00;2.10;;;17.20;99.90;;;;;;5032077;28;20467;-71
2022/09/15 04:06:23;;;;;;;3.70;2.50;;;17.20;99.90;;;;;;5032152;28;20429;-71
2022/09/15 04:08:49;;;;;;;4.10;2.40;;;17.20;99.90;;;;;;5031403;28;20170;-71
2022/09/15 04:11:17;;;;;;;2.43;2.23;;;17.10;99.90;;;;;;5032032;28;20464;-71
2022/09/15 04:13:44;;;;;;;3.10;1.80;;;17.10;99.90;;;;;;5031995;28;20424;-73
2022/09/15 04:16:15;;;;;;;2.40;2.20;;;17.10;99.90;;;;;;5032038;28;20906;-71
2022/09/15 04:18:41;;;;;;;3.57;2.30;;;17.10;99.90;;;;;;5031347;28;20786;-71
2022/09/15 04:21:11;;;;;;;3.80;2.60;;;17.10;99.90;;;;;;5032274;28;20471;-71
2022/09/15 04:23:37;;;;;;;2.13;1.87;;;17.10;99.90;;;;;;5031941;28;20166;-70
2022/09/15 04:26:07;;;;;;;3.30;2.47;;;17.10;99.90;;;;;;5032002;28;20444;-73
2022/09/15 04:28:35;;;;;;;3.00;2.47;;;17.10;99.90;;;;;;5031095;28;20978;-71
2022/09/15 04:31:04;;;;;;;3.77;3.00;;;17.10;99.90;;;;;;5031791;28;20548;-70
2022/09/15 04:33:29;;;;;;;5.30;3.27;;;17.10;99.90;;;;;;5031875;28;20413;-71
2022/09/15 04:36:03;;;;;;;3.03;2.73;;;17.10;99.90;;;;;;5031889;28;20427;-70
2022/09/15 04:38:30;;;;;;;2.90;2.30;;;17.10;99.90;;;;;;5031000;28;20180;-71
2022/09/15 04:40:56;;;;;;;2.70;2.30;;;17.10;99.90;;;;;;5031742;28;20571;-71
2022/09/15 04:43:21;;;;;;;2.60;2.40;;;17.10;99.90;;;;;;5031667;28;20448;-71
2022/09/15 04:45:47;;;;;;;3.23;2.30;;;17.10;99.90;;;;;;5031850;28;20424;-71
2022/09/15 04:48:13;;;;;;;2.30;2.00;;;17.10;99.90;;;;;;5031011;28;20185;-74
2022/09/15 04:50:39;;;;;;;2.57;2.37;;;17.10;99.90;;;;;;5031716;28;20711;-70
2022/09/15 04:53:05;;;;;;;2.40;2.20;;;17.10;99.90;;;;;;5031878;28;20170;-70
2022/09/15 04:55:32;;;;;;;4.23;2.77;;;17.10;99.90;;;;;;5031688;28;20413;-72
2022/09/15 04:57:57;;;;;;;2.63;1.80;;;17.10;99.90;;;;;;5031565;28;20409;-73
2022/09/15 05:00:25;;;;;;;4.73;2.20;;;17.10;99.90;;;;;;5030959;28;20513;-70
2022/09/15 05:02:52;;;;;;;2.17;2.00;;;17.10;99.90;;;;;;5031633;28;20166;-72
2022/09/15 05:05:18;;;;;;;2.00;1.90;;;17.10;99.90;;;;;;5031773;28;20425;-72
2022/09/15 05:07:44;;;;;;;2.47;1.80;;;17.10;99.90;;;;;;5031883;28;20427;-72
2022/09/15 05:10:09;;;;;;;2.40;1.80;;;17.10;99.90;;;;;;5034152;28;20960;-71
2022/09/15 05:12:35;;;;;;;2.00;1.87;;;17.10;99.90;;;;;;5035024;28;20836;-71
2022/09/15 05:15:00;;;;;;;7.53;2.97;;;17.20;99.90;;;;;;5035248;28;20181;-73
2022/09/15 05:17:30;;;;;;;3.70;2.90;;;17.20;99.90;;;;;;5035237;28;20283;-71
2022/09/15 05:19:56;;;;;;;4.70;2.97;;;17.20;99.90;;;;;;5034526;28;20170;-70
2022/09/15 05:22:21;;;;;;;2.40;2.20;;;17.10;99.90;;;;;;5034892;28;20535;-71
2022/09/15 05:24:46;;;;;;;4.53;1.60;;;17.00;99.90;;;;;;5034924;28;20770;-73
2022/09/15 05:27:12;;;;;;;2.37;2.17;;;17.00;99.90;;;;;;5034856;28;20179;-70
2022/09/15 05:29:37;;;;;;;2.43;2.23;;;17.00;99.90;;;;;;5034250;28;20162;-70
2022/09/15 05:32:03;;;;;;;2.50;2.30;;;17.00;99.90;;;;;;5034602;28;20202;-71
2022/09/15 05:34:28;;;;;;;2.13;1.90;;;17.00;99.90;;;;;;5034920;28;20167;-70
2022/09/15 05:36:54;;;;;;;2.83;2.27;;;17.00;99.90;;;;;;5034895;28;20171;-72
2022/09/15 05:39:19;;;;;;;2.40;2.07;;;17.00;99.90;;;;;;5033942;28;20170;-72
2022/09/15 05:41:45;;;;;;;3.40;2.13;;;17.10;99.90;;;;;;5034747;28;20225;-72
2022/09/15 05:44:10;;;;;;;3.27;2.00;;;17.10;99.90;;;;;;5034761;28;20530;-72
2022/09/15 05:46:36;;;;;;;1.93;1.83;;;17.10;99.90;;;;;;5034763;28;20166;-73
2022/09/15 05:49:01;;;;;;;2.97;2.13;;;17.20;99.90;;;;;;5034083;28;20253;-72
2022/09/15 05:51:28;;;;;;;1.97;1.67;;;17.20;99.90;;;;;;5034295;28;20206;-73
2022/09/15 05:53:54;;;;;;;3.30;1.80;;;17.20;99.90;;;;;;5034520;28;20217;-72
2022/09/15 05:56:20;;;;;;;2.13;1.63;;;17.30;99.90;;;;;;5034346;28;20417;-72
2022/09/15 05:58:47;;;;;;;3.53;1.50;;;17.30;99.90;;;;;;5033587;28;20538;-73
2022/09/15 06:01:18;;;;;;;2.27;1.70;;;17.30;99.90;;;;;;5034322;28;20260;-72
2022/09/15 06:03:44;;;;;;;3.77;2.23;;;17.40;99.90;;;;;;5034229;28;20512;-73
2022/09/15 06:06:11;;;;;;;1.60;1.50;;;17.40;99.90;;;;;;5034361;28;20463;-72
2022/09/15 06:08:39;;;;;;;2.47;2.27;;;17.40;99.90;;;;;;5033486;28;20174;-73
2022/09/15 06:11:10;;;;;;;1.60;1.50;;;17.50;99.90;;;;;;5033945;28;20823;-73
2022/09/15 06:13:36;;;;;;;2.80;1.77;;;17.40;99.90;;;;;;5034304;28;20404;-73
2022/09/15 06:16:07;;;;;;;2.23;2.07;;;17.50;99.90;;;;;;5033975;28;20428;-72
2022/09/15 06:18:36;;;;;;;8.10;2.00;;;17.50;99.90;;;;;;5033329;28;20417;-73
2022/09/15 06:21:07;;;;;;;1.50;1.40;;;17.50;99.90;;;;;;5032807;28;20463;-73
2022/09/15 06:23:32;;;;;;;1.80;1.57;;;17.50;99.90;;;;;;5034076;28;20425;-72
2022/09/15 06:26:10;;;;;;;1.77;1.67;;;17.60;99.90;;;;;;5033949;28;20412;-73
2022/09/15 06:28:36;;;;;;;2.90;2.00;;;17.50;99.90;;;;;;5033267;28;20190;-73
2022/09/15 06:31:02;;;;;;;1.87;1.77;;;17.60;99.90;;;;;;5033679;28;21001;-72
2022/09/15 06:33:27;;;;;;;2.80;1.47;;;17.60;99.90;;;;;;5031401;28;20421;-72
2022/09/15 06:35:53;;;;;;;2.40;2.03;;;17.60;99.90;;;;;;5020614;28;20834;-73
2022/09/15 06:38:18;;;;;;;2.07;1.97;;;17.60;99.90;;;;;;5021917;28;20182;-73
2022/09/15 06:40:52;;;;;;;2.10;1.43;;;17.60;99.90;;;;;;5030340;28;20194;-73
2022/09/15 06:43:17;;;;;;;1.63;1.53;;;17.60;99.90;;;;;;5033561;28;20178;-73
2022/09/15 06:45:43;;;;;;;2.10;1.87;;;17.50;99.90;;;;;;5026279;28;20477;-73
2022/09/15 06:48:08;;;;;;;1.53;1.43;;;17.50;99.90;;;;;;5006824;28;20193;-73
2022/09/15 06:50:34;;;;;;;2.20;1.83;;;17.40;99.90;;;;;;5028399;28;20210;-73
2022/09/15 06:52:59;;;;;;;2.90;2.63;;;17.40;99.90;;;;;;5035747;28;20517;-73
2022/09/15 06:55:25;;;;;;;2.73;2.07;;;17.30;99.90;;;;;;5030693;28;20178;-74
2022/09/15 06:57:50;;;;;;;2.33;1.67;;;17.20;99.90;;;;;;5022470;28;20249;-73
2022/09/15 07:00:18;;;;;;;2.47;2.27;;;17.20;99.90;;;;;;5030281;28;20202;-74
2022/09/15 07:02:48;;;;;;;1.90;1.80;;;17.10;99.90;;;;;;5030276;28;20184;-74
2022/09/15 07:05:13;;;;;;;2.93;2.73;;;17.10;99.90;;;;;;5029884;28;20908;-74
2022/09/15 07:07:39;;;;;;;2.07;1.83;;;17.10;99.90;;;;;;5018490;28;20433;-74
2022/09/15 07:10:05;;;;;;;2.77;2.00;;;17.20;99.90;;;;;;5011749;28;20253;-74
2022/09/15 07:12:31;;;;;;;10.80;7.47;;;17.20;99.90;;;;;;5022009;28;20203;-74
2022/09/15 07:14:57;;;;;;;4.37;2.37;;;17.20;99.90;;;;;;5015979;28;20202;-74
2022/09/15 07:17:22;;;;;;;2.80;1.83;;;17.20;99.90;;;;;;5028012;28;20866;-74
2022/09/15 07:19:48;;;;;;;2.30;2.00;;;17.10;99.90;;;;;;5020757;28;20185;-74
2022/09/15 07:22:13;;;;;;;3.17;2.83;;;17.10;99.90;;;;;;5031841;28;20714;-74
2022/09/15 07:24:39;;;;;;;3.07;2.10;;;17.10;99.90;;;;;;5032183;28;20190;-74
2022/09/15 07:27:05;;;;;;;1.97;1.87;;;17.20;99.90;;;;;;5027186;28;20604;-74
2022/09/15 07:29:30;;;;;;;7.33;5.47;;;17.30;99.90;;;;;;5031939;28;20674;-74
2022/09/15 07:31:56;;;;;;;2.73;2.53;;;17.30;99.90;;;;;;5030579;28;20488;-73
2022/09/15 07:34:22;;;;;;;4.90;2.10;;;17.30;99.90;;;;;;5032285;28;20194;-74
2022/09/15 07:36:47;;;;;;;2.80;1.90;;;17.30;99.90;;;;;;5035080;28;20232;-74
2022/09/15 07:39:13;;;;;;;2.03;1.93;;;17.30;99.90;;;;;;5031869;28;20162;-74
2022/09/15 07:41:38;;;;;;;2.70;2.27;;;17.20;99.90;;;;;;5021868;28;20202;-74
2022/09/15 07:44:05;;;;;;;2.53;1.87;;;17.10;99.90;;;;;;5032582;28;20173;-74
2022/09/15 07:46:32;;;;;;;2.23;2.03;;;17.10;99.90;;;;;;5027893;28;20532;-74
2022/09/15 07:48:58;;;;;;;3.33;1.97;;;17.10;99.90;;;;;;5021305;28;20439;-74
2022/09/15 07:51:24;;;;;;;2.03;1.80;;;17.10;99.90;;;;;;5032030;28;20821;-74
2022/09/15 07:53:50;;;;;;;3.37;2.00;;;17.00;99.90;;;;;;5031252;28;20928;-74
2022/09/15 07:56:17;;;;;;;4.53;2.00;;;17.00;99.90;;;;;;5028736;28;20417;-74
2022/09/15 07:58:43;;;;;;;2.53;2.20;;;17.00;99.90;;;;;;5031408;28;20780;-75
2022/09/15 08:01:10;;;;;;;5.07;2.00;;;17.00;99.90;;;;;;5030264;28;20918;-74
2022/09/15 08:03:40;;;;;;;1.70;1.60;;;17.00;99.90;;;;;;5012393;28;20449;-75
2022/09/15 08:06:05;;;;;;;3.13;1.93;;;17.00;99.90;;;;;;5013370;28;20438;-75
2022/09/15 08:08:31;;;;;;;3.53;1.80;;;17.00;99.90;;;;;;5011379;28;20441;-75
2022/09/15 08:10:56;;;;;;;4.30;2.10;;;17.00;99.90;;;;;;5012113;28;20206;-75
2022/09/15 08:13:23;;;;;;;4.90;2.50;;;16.90;99.90;;;;;;5023274;28;20182;-76
2022/09/15 08:15:49;;;;;;;2.33;1.93;;;17.00;99.90;;;;;;5028589;28;20651;-75
2022/09/15 08:18:15;;;;;;;3.57;1.83;;;17.00;99.90;;;;;;5029213;28;20495;-74
2022/09/15 08:20:42;;;;;;;2.30;2.10;;;17.00;99.90;;;;;;5031330;28;21012;-74
2022/09/15 08:23:10;;;;;;;3.10;1.80;;;17.00;99.90;;;;;;5031851;28;20508;-75
2022/09/15 08:25:39;;;;;;;2.40;2.20;;;17.00;99.90;;;;;;5023618;28;20483;-75
2022/09/15 08:28:05;;;;;;;2.60;2.40;;;17.10;99.90;;;;;;5031378;28;20425;-75
2022/09/15 08:30:31;;;;;;;6.70;2.50;;;17.00;99.90;;;;;;5030362;28;20490;-75
2022/09/15 08:32:56;;;;;;;2.30;1.97;;;17.10;99.90;;;;;;5031315;28;20178;-75
2022/09/15 08:35:22;;;;;;;4.83;2.67;;;17.20;99.90;;;;;;5029837;28;20180;-75
2022/09/15 08:37:48;;;;;;;11.70;7.10;;;17.10;99.90;;;;;;5029563;28;20185;-75
2022/09/15 08:40:25;;;;;;;6.33;5.03;;;17.20;99.90;;;;;;5030876;28;20421;-75
2022/09/15 08:42:54;;;;;;;2.70;2.50;;;17.30;99.90;;;;;;5025508;28;20183;-75
2022/09/15 08:45:24;;;;;;;7.00;6.13;;;17.40;99.90;;;;;;5015826;28;20433;-74
2022/09/15 08:47:55;;;;;;;7.60;5.30;;;17.60;99.90;;;;;;5055021;28;20423;-75
2022/09/15 08:50:28;;;;;;;4.20;2.50;;;17.50;99.90;;;;;;5023950;28;20425;-75
2022/09/15 08:53:05;;;;;;;2.30;2.10;;;17.50;99.90;;;;;;5015790;28;20426;-75
2022/09/15 08:55:40;;;;;;;3.13;2.20;;;17.50;99.90;;;;;;5019672;28;20436;-75
2022/09/15 08:58:13;;;;;;;4.87;1.97;;;17.40;99.90;;;;;;5017421;28;20524;-75
2022/09/15 09:00:40;;;;;;;2.03;1.83;;;17.40;99.90;;;;;;5034606;28;20448;-75
2022/09/15 09:03:30;;;;;;;3.60;1.90;;;17.40;99.90;;;;;;5019429;28;20953;-75
2022/09/15 09:06:10;;;;;;;3.40;1.97;;;17.40;99.90;;;;;;5019151;28;20494;-75
2022/09/15 09:09:01;;;;;;;5.23;2.30;;;17.50;99.90;;;;;;5033500;28;20467;-75
2022/09/15 09:11:37;;;;;;;2.50;2.27;;;17.60;99.90;;;;;;5035300;28;20518;-75
2022/09/15 09:14:35;;;;;;;1.97;1.87;;;17.60;99.90;;;;;;5024728;28;20941;-75
2022/09/15 09:17:22;;;;;;;2.60;2.40;;;17.70;99.90;;;;;;5027775;28;20465;-75
2022/09/15 09:19:59;;;;;;;2.30;2.20;;;17.70;99.90;;;;;;5033372;28;20510;-74
2022/09/15 09:22:30;;;;;;;2.10;1.93;;;17.80;99.90;;;;;;5034339;28;20474;-74
2022/09/15 09:24:59;;;;;;;2.93;2.63;;;17.80;99.90;;;;;;5034393;28;20442;-74
2022/09/15 09:27:35;;;;;;;2.67;2.40;;;17.90;99.90;;;;;;5047851;28;20518;-74
2022/09/15 09:30:12;;;;;;;2.13;2.03;;;18.00;99.90;;;;;;5054107;28;20451;-74
2022/09/15 09:32:44;;;;;;;2.23;2.10;;;18.20;99.90;;;;;;5040203;28;20456;-74
2022/09/15 09:35:21;;;;;;;2.83;2.13;;;18.30;99.90;;;;;;5033480;28;20423;-74
2022/09/15 09:37:48;;;;;;;5.57;2.37;;;18.40;99.90;;;;;;5033106;28;20942;-74
2022/09/15 09:40:14;;;;;;;6.93;2.43;;;18.40;99.90;;;;;;5033422;28;20799;-74
2022/09/15 09:42:41;;;;;;;2.27;2.07;;;18.30;99.90;;;;;;5034532;28;20425;-74
2022/09/15 09:45:12;;;;;;;1.83;1.70;;;18.10;99.90;;;;;;5032899;28;20432;-74
2022/09/15 09:47:39;;;;;;;5.83;2.10;;;18.10;99.90;;;;;;5051956;28;20786;-74
2022/09/15 09:50:30;;;;;;;5.00;1.60;;;18.10;99.90;;;;;;5053793;28;20824;-74
2022/09/15 09:52:56;;;;;;;1.97;1.77;;;18.00;99.90;;;;;;5026223;28;20420;-74
2022/09/15 09:55:24;;;;;;;4.60;2.10;;;18.00;99.90;;;;;;5030142;28;20822;-74
2022/09/15 09:57:50;;;;;;;2.50;1.60;;;18.10;99.90;;;;;;5029687;28;20591;-74
2022/09/15 10:00:36;;;;;;;1.50;1.40;;;18.10;99.90;;;;;;5032892;28;20501;-74
2022/09/15 10:03:21;;;;;;;6.20;1.67;;;18.40;99.90;;;;;;5033222;28;20844;-74
2022/09/15 10:06:00;;;;;;;2.83;1.83;;;18.50;99.90;;;;;;5016860;28;20424;-74
2022/09/15 10:08:26;;;;;;;1.90;1.80;;;18.60;99.90;;;;;;5033251;28;20405;-74
2022/09/15 10:10:53;;;;;;;1.33;1.23;;;18.50;99.90;;;;;;5033286;28;20473;-74
2022/09/15 10:13:20;;;;;;;1.27;0.80;;;18.20;99.90;;;;;;5014423;28;20171;-74
2022/09/15 10:15:52;;;;;;;2.30;1.20;;;17.90;99.90;;;;;;5015792;28;20502;-74
2022/09/15 10:18:34;;;;;;;0.90;0.90;;;17.70;99.90;;;;;;5031386;28;20559;-72
2022/09/15 10:21:02;;;;;;;1.63;0.97;;;17.70;99.90;;;;;;5033880;28;20461;-72
2022/09/15 10:23:30;;;;;;;1.03;0.90;;;17.70;99.90;;;;;;5033921;28;20764;-72
2022/09/15 10:26:30;;;;;;;1.20;1.10;;;17.50;99.90;;;;;;5031659;28;20801;-74
2022/09/15 10:29:25;;;;;;;3.90;1.00;;;17.40;99.90;;;;;;5006559;28;20488;-74
2022/09/15 10:31:51;;;;;;;1.40;0.67;;;17.20;99.90;;;;;;5000866;28;20473;-72
2022/09/15 10:34:29;;;;;;;1.20;1.00;;;17.00;99.90;;;;;;5028019;28;20428;-74
2022/09/15 10:37:06;;;;;;;0.80;0.70;;;17.00;99.90;;;;;;5029484;28;20169;-73
2022/09/15 10:39:51;;;;;;;0.70;0.70;;;16.90;99.90;;;;;;5031695;28;20427;-74
2022/09/15 10:42:30;;;;;;;1.10;0.80;;;16.80;99.90;;;;;;5030844;28;20460;-75
2022/09/15 10:45:24;;;;;;;3.57;0.90;;;16.80;99.90;;;;;;5012382;28;20425;-75
2022/09/15 10:48:18;;;;;;;1.40;1.13;;;16.80;99.90;;;;;;5027200;28;20436;-75
2022/09/15 10:50:48;;;;;;;4.00;0.80;;;16.70;99.90;;;;;;5013353;28;20534;-74
2022/09/15 10:53:52;;;;;;;0.83;0.77;;;16.70;99.90;;;;;;5019623;28;20431;-77
2022/09/15 10:56:29;;;;;;;3.10;0.97;;;16.70;99.90;;;;;;5030491;28;20442;-66
2022/09/15 10:59:02;;;;;;;0.70;0.70;;;16.70;99.90;;;;;;5042570;28;20412;-67
2022/09/15 11:01:28;;;;;;;1.57;0.77;;;16.60;99.90;;;;;;5013041;28;20439;-66
2022/09/15 11:04:22;;;;;;;2.30;1.30;;;16.60;99.90;;;;;;5012722;28;20509;-67
2022/09/15 11:07:10;;;;;;;0.87;0.87;;;16.40;99.90;;;;;;5029116;28;20608;-67
2022/09/15 11:10:15;;;;;;;1.90;1.00;;;16.40;99.90;;;;;;5019722;28;20483;-67
2022/09/15 11:12:51;;;;;;;4.77;1.53;;;16.20;99.90;;;;;;5026074;28;20471;-66
2022/09/15 11:15:41;;;;;;;1.73;1.63;;;16.00;99.90;;;;;;5031607;28;20417;-67
2022/09/15 11:18:29;;;;;;;2.40;1.73;;;15.90;99.90;;;;;;5047061;28;20429;-67
2022/09/15 11:21:12;;;;;;;2.57;2.30;;;15.80;99.90;;;;;;5014800;28;20478;-67
2022/09/15 11:24:09;;;;;;;3.20;2.87;;;15.80;99.90;;;;;;5012139;28;20406;-67
2022/09/15 11:26:53;;;;;;;6.20;5.60;;;15.80;99.90;;;;;;5029431;28;20990;-66
2022/09/15 11:29:28;;;;;;;3.70;3.17;;;15.80;99.90;;;;;;5011821;28;20406;-67
2022/09/15 11:32:09;;;;;;;5.20;3.47;;;15.70;99.90;;;;;;5011393;28;20461;-67
2022/09/15 11:34:52;;;;;;;4.30;2.97;;;15.60;99.90;;;;;;5018292;28;20508;-67
2022/09/15 11:37:37;;;;;;;3.50;3.20;;;15.70;99.90;;;;;;5047685;28;20913;-68
2022/09/15 11:40:44;;;;;;;6.80;3.33;;;15.60;99.90;;;;;;5044384;28;20425;-67
2022/09/15 11:43:19;;;;;;;3.37;3.07;;;15.50;99.90;;;;;;5011836;28;20425;-67
2022/09/15 11:45:48;;;;;;;3.67;3.37;;;15.70;99.90;;;;;;5015067;28;20420;-67
2022/09/15 11:48:31;;;;;;;3.83;3.13;;;15.80;99.90;;;;;;5030823;28;21036;-67
2022/09/15 11:51:00;;;;;;;2.93;2.73;;;15.80;99.90;;;;;;5032116;28;20460;-67
2022/09/15 11:53:38;;;;;;;4.80;3.70;;;15.90;99.90;;;;;;5022313;28;20939;-66
2022/09/15 11:56:17;;;;;;;3.47;2.80;;;15.90;99.90;;;;;;5018211;28;20416;-67
2022/09/15 11:58:51;;;;;;;4.23;3.80;;;16.00;99.90;;;;;;5026300;28;20429;-66
2022/09/15 12:02:08;;;;;;;4.70;4.30;;;16.00;99.90;;;;;;5012220;28;20445;-67
2022/09/15 12:04:57;;;;;;;4.33;4.03;;;15.80;99.90;;;;;;4937318;28;20436;-67
2022/09/15 12:07:27;;;;;;;4.53;3.70;;;15.70;99.90;;;;;;5024646;28;20585;-69
2022/09/15 12:09:54;;;;;;;6.17;4.40;;;15.60;99.90;;;;;;5031160;28;20428;-66
2022/09/15 12:12:21;;;;;;;5.67;5.17;;;15.60;99.90;;;;;;5030652;28;20472;-69
2022/09/15 12:14:50;;;;;;;7.63;5.40;;;15.50;99.90;;;;;;5031907;28;20434;-68
2022/09/15 12:17:34;;;;;;;5.27;4.77;;;15.60;99.90;;;;;;5017285;28;20445;-68
2022/09/15 12:20:09;;;;;;;5.67;5.17;;;15.60;99.90;;;;;;5011234;28;20418;-69
2022/09/15 12:22:42;;;;;;;6.47;5.87;;;15.50;99.90;;;;;;5017177;28;20460;-69
2022/09/15 12:25:15;;;;;;;6.40;5.80;;;15.50;99.90;;;;;;5013688;28;20442;-69
2022/09/15 12:27:41;;;;;;;5.90;5.27;;;15.40;99.90;;;;;;5029688;28;20491;-69
2022/09/15 12:30:37;;;;;;;5.40;5.00;;;15.50;99.90;;;;;;5030323;28;20428;-66
2022/09/15 12:33:41;;;;;;;6.00;5.50;;;15.70;99.90;;;;;;5023131;28;20190;-69
2022/09/15 12:36:34;;;;;;;5.37;4.87;;;15.80;99.90;;;;;;5027891;28;20433;-69
2022/09/15 12:39:01;;;;;;;6.17;5.43;;;16.00;99.90;;;;;;5030666;28;20416;-68
2022/09/15 12:41:28;;;;;;;6.30;4.83;;;15.80;99.90;;;;;;5021431;28;20460;-68
2022/09/15 12:44:36;;;;;;;5.90;5.27;;;15.80;99.90;;;;;;5011683;28;20930;-68
2022/09/15 12:47:05;;;;;;;8.33;4.90;;;15.70;99.90;;;;;;5023355;28;20470;-69
2022/09/15 12:49:35;;;;;;;6.50;4.33;;;15.70;99.90;;;;;;5030728;28;20419;-69
2022/09/15 12:52:06;;;;;;;5.20;4.70;;;15.70;99.90;;;;;;5015548;28;20572;-69
2022/09/15 12:54:34;;;;;;;5.37;4.90;;;15.90;99.90;;;;;;5019467;28;20425;-69
2022/09/15 12:57:00;;;;;;;5.47;4.97;;;16.10;99.90;;;;;;5040353;28;20423;-68
2022/09/15 12:59:27;;;;;;;4.83;4.47;;;16.40;99.90;;;;;;5030719;28;20421;-68
2022/09/15 13:01:54;;;;;;;5.57;4.70;;;16.70;99.90;;;;;;5005848;28;20467;-68
2022/09/15 13:04:42;;;;;;;4.63;4.27;;;17.00;99.90;;;;;;5019341;28;20434;-68
2022/09/15 13:07:13;;;;;;;4.90;4.50;;;17.20;99.90;;;;;;5027324;28;20440;-68
2022/09/15 13:09:56;;;;;;;5.17;4.30;;;17.60;99.90;;;;;;5044421;28;20511;-68